createdAt,value
2019-05-09T13:47:11.222Z,15.70
2019-05-09T13:49:45.231Z,15.70
2019-05-09T13:52:18.574Z,16.11
2019-05-09T13:54:51.154Z,16.01
2019-05-09T13:57:24.634Z,16.24
2019-05-09T13:59:58.532Z,16.49
2019-05-09T14:02:32.251Z,15.73
2019-05-09T14:05:08.584Z,15.61
2019-05-09T14:07:40.719Z,15.66
2019-05-09T14:10:14.317Z,15.60
2019-05-09T14:13:04.616Z,16.42
2019-05-09T14:15:23.074Z,17.49
2019-05-09T14:17:58.247Z,17.23
2019-05-09T14:20:31.385Z,18.00
2019-05-09T14:23:04.062Z,18.51
2019-05-09T14:25:38.122Z,18.83
2019-05-09T14:28:11.557Z,18.76
2019-05-09T14:30:47.677Z,18.15
2019-05-09T14:33:21.312Z,17.41
2019-05-09T14:35:54.893Z,16.79
2019-05-09T14:38:28.415Z,16.80
2019-05-09T14:41:02.012Z,17.17
2019-05-09T14:43:35.549Z,18.24
2019-05-09T14:46:12.089Z,18.34
2019-05-09T14:48:45.191Z,18.07
2019-05-09T14:51:19.306Z,17.78
2019-05-09T14:53:52.341Z,17.82
2019-05-09T14:56:27.953Z,18.44
2019-05-09T14:59:00.831Z,17.94
2019-05-09T15:01:34.235Z,17.97
2019-05-09T15:04:09.019Z,17.22
2019-05-09T15:06:42.692Z,16.98
2019-05-09T15:09:18.170Z,16.62
2019-05-09T15:11:51.883Z,16.38
2019-05-09T15:14:24.511Z,16.17
2019-05-09T15:16:59.028Z,16.29
2019-05-09T15:19:32.249Z,16.30
2019-05-09T15:22:08.256Z,16.07
2019-05-09T15:24:42.054Z,15.69
2019-05-09T15:27:17.533Z,15.63
2019-05-09T15:29:49.932Z,15.26
2019-05-09T15:32:23.714Z,15.08
2019-05-09T15:34:58.646Z,15.12
2019-05-09T15:37:32.460Z,15.21
2019-05-09T15:40:08.636Z,15.27
2019-05-09T15:42:42.190Z,15.74
2019-05-09T15:45:15.183Z,16.48
2019-05-09T15:47:48.781Z,17.21
2019-05-09T15:50:23.414Z,17.22
2019-05-09T15:52:57.995Z,16.73
2019-05-09T15:55:31.227Z,16.95
2019-05-09T15:58:04.332Z,17.22
2019-05-09T16:00:38.649Z,16.73
2019-05-09T16:03:12.337Z,16.36
2019-05-09T16:05:47.925Z,16.19
2019-05-09T16:08:21.583Z,15.42
2019-05-09T16:10:53.916Z,15.26
2019-05-09T16:13:28.478Z,15.26
2019-05-09T16:16:01.815Z,15.59
2019-05-09T16:18:35.377Z,15.22
2019-05-09T16:21:09.267Z,14.98
2019-05-09T16:23:42.788Z,15.09
2019-05-09T16:26:15.387Z,15.06
2019-05-09T16:28:49.370Z,15.23
2019-05-09T16:31:22.719Z,15.17
2019-05-09T16:33:58.180Z,15.11
2019-05-09T16:36:31.617Z,14.87
2019-05-09T16:39:07.435Z,14.92
2019-05-09T16:41:41.532Z,14.70
2019-05-09T16:44:15.011Z,14.50
2019-05-09T16:46:48.772Z,14.49
2019-05-09T16:49:25.955Z,14.61
2019-05-09T16:51:58.172Z,14.36
2019-05-09T16:54:35.392Z,14.22
2019-05-09T16:57:08.622Z,14.17
2019-05-09T16:59:42.521Z,14.19
2019-05-09T17:02:21.326Z,14.08
2019-05-09T17:04:50.645Z,14.11
2019-05-09T17:07:23.362Z,13.99
2019-05-09T17:09:57.743Z,14.02
2019-05-09T17:12:31.487Z,13.98
2019-05-09T17:15:05.273Z,14.03
2019-05-09T17:17:38.864Z,13.93
2019-05-09T17:20:14.364Z,13.88
2019-05-09T17:23:11.526Z,13.85
2019-05-09T17:25:40.903Z,13.91
2019-05-09T17:28:14.657Z,13.87
2019-05-09T17:30:49.453Z,14.04
2019-05-09T17:33:23.410Z,13.91
2019-05-09T17:35:57.734Z,13.94
2019-05-09T17:38:31.954Z,13.69
2019-05-09T17:41:05.053Z,13.64
2019-05-09T17:43:38.401Z,13.87
2019-05-09T17:46:11.953Z,13.78
2019-05-09T17:48:45.171Z,13.70
2019-05-09T17:51:32.322Z,13.40
2019-05-09T17:53:54.201Z,13.33
2019-05-09T17:56:27.179Z,13.29
2019-05-09T17:59:01.189Z,13.22
2019-05-09T18:01:34.382Z,13.04
2019-05-09T18:04:09.230Z,12.97
2019-05-09T18:06:43.968Z,12.97
2019-05-09T18:09:18.946Z,12.78
2019-05-09T18:11:52.044Z,12.63
2019-05-09T18:14:27.488Z,12.57
2019-05-09T18:17:00.623Z,12.52
2019-05-09T18:19:34.442Z,12.53
2019-05-09T18:22:08.226Z,12.61
2019-05-09T18:24:42.184Z,12.63
2019-05-09T18:27:15.010Z,12.54
2019-05-09T18:29:48.482Z,12.48
2019-05-09T18:32:43.609Z,12.31
2019-05-09T18:35:19.375Z,12.15
2019-05-09T18:37:53.782Z,12.12
2019-05-09T18:40:28.329Z,11.96
2019-05-09T18:43:01.328Z,11.86
2019-05-09T18:45:37.399Z,11.83
2019-05-09T18:48:10.833Z,11.74
2019-05-09T18:50:44.188Z,11.71
2019-05-09T18:53:17.146Z,11.69
2019-05-09T18:55:50.656Z,11.59
2019-05-09T18:58:24.901Z,11.56
2019-05-09T19:00:57.654Z,11.52
2019-05-09T19:03:31.232Z,11.36
2019-05-09T19:06:05.155Z,11.32
2019-05-09T19:08:38.745Z,11.30
2019-05-09T19:11:12.264Z,11.29
2019-05-09T19:13:45.880Z,11.37
2019-05-09T19:16:36.222Z,11.28
2019-05-09T19:19:34.551Z,11.33
2019-05-09T19:22:21.403Z,11.24
2019-05-09T19:24:43.286Z,11.25
2019-05-09T19:27:17.224Z,11.14
2019-05-09T19:29:50.026Z,11.15
2019-05-09T19:32:23.153Z,11.12
2019-05-09T19:34:56.293Z,11.07
2019-05-09T19:37:29.061Z,11.05
2019-05-09T19:40:02.343Z,11.07
2019-05-09T19:42:36.114Z,10.99
2019-05-09T19:45:09.965Z,10.98
2019-05-09T19:47:43.924Z,11.03
2019-05-09T19:50:16.889Z,11.02
2019-05-09T19:52:50.004Z,11.05
2019-05-09T19:55:23.833Z,10.92
2019-05-09T19:57:57.741Z,10.85
2019-05-09T20:00:30.879Z,10.70
2019-05-09T20:03:04.041Z,10.55
2019-05-09T20:05:36.816Z,10.54
2019-05-09T20:08:10.006Z,10.59
2019-05-09T20:11:01.889Z,10.50
2019-05-09T20:13:56.758Z,10.38
2019-05-09T20:16:31.940Z,10.34
2019-05-09T20:19:06.047Z,10.35
2019-05-09T20:21:39.105Z,10.30
2019-05-09T20:24:12.277Z,10.24
2019-05-09T20:26:45.273Z,10.20
2019-05-09T20:29:18.473Z,10.11
2019-05-09T20:31:51.689Z,10.12
2019-05-09T20:34:25.278Z,10.07
2019-05-09T20:36:58.286Z,10.10
2019-05-09T20:39:32.229Z,10.03
2019-05-09T20:42:06.515Z,9.99
2019-05-09T20:44:39.455Z,9.95
2019-05-09T20:47:13.345Z,9.92
2019-05-09T20:49:46.936Z,9.99
2019-05-09T20:52:22.894Z,9.95
2019-05-09T20:54:56.305Z,10.01
2019-05-09T20:57:29.336Z,10.00
2019-05-09T21:00:02.597Z,9.88
2019-05-09T21:02:35.746Z,9.84
2019-05-09T21:05:08.889Z,10.01
2019-05-09T21:07:42.878Z,9.94
2019-05-09T21:10:17.426Z,9.84
2019-05-09T21:12:50.177Z,9.98
2019-05-09T21:15:24.070Z,9.98
2019-05-09T21:17:57.309Z,9.96
2019-05-09T21:20:30.899Z,9.85
2019-05-09T21:23:04.005Z,9.84
2019-05-09T21:25:37.372Z,9.77
2019-05-09T21:28:10.608Z,9.83
2019-05-09T21:30:42.940Z,9.94
2019-05-09T21:33:16.260Z,9.90
2019-05-09T21:35:49.763Z,9.82
2019-05-09T21:38:22.094Z,9.81
2019-05-09T21:40:56.090Z,9.95
2019-05-09T21:43:29.528Z,9.94
2019-05-09T21:46:02.352Z,9.93
2019-05-09T21:48:38.644Z,9.98
2019-05-09T21:51:12.629Z,10.08
2019-05-09T21:53:46.233Z,10.12
2019-05-09T21:56:19.821Z,10.17
2019-05-09T21:58:52.473Z,10.19
2019-05-09T22:01:25.545Z,10.32
2019-05-09T22:03:59.080Z,10.37
2019-05-09T22:06:32.142Z,10.39
2019-05-09T22:09:09.130Z,10.48
2019-05-09T22:11:42.924Z,10.52
2019-05-09T22:14:15.934Z,10.59
2019-05-09T22:16:49.619Z,10.58
2019-05-09T22:19:23.347Z,10.47
2019-05-09T22:21:56.993Z,10.40
2019-05-09T22:24:29.703Z,10.29
2019-05-09T22:27:03.099Z,10.19
2019-05-09T22:29:36.856Z,10.08
2019-05-09T22:32:10.578Z,10.00
2019-05-09T22:34:43.690Z,10.00
2019-05-09T22:37:15.913Z,10.03
2019-05-09T22:39:49.359Z,10.03
2019-05-09T22:42:22.415Z,9.94
2019-05-09T22:44:55.860Z,9.89
2019-05-09T22:47:30.379Z,9.85
2019-05-09T22:50:03.359Z,9.83
2019-05-09T22:52:35.611Z,9.79
2019-05-09T22:55:08.945Z,9.73
2019-05-09T22:57:42.552Z,9.74
2019-05-09T23:00:16.527Z,9.70
2019-05-09T23:02:50.152Z,9.72
2019-05-09T23:05:23.942Z,9.67
2019-05-09T23:07:56.954Z,9.66
2019-05-09T23:10:30.959Z,9.74
2019-05-09T23:13:03.852Z,9.77
2019-05-09T23:15:37.033Z,9.87
2019-05-09T23:18:10.441Z,9.87
2019-05-09T23:20:49.347Z,10.03
2019-05-09T23:23:34.364Z,10.04
2019-05-09T23:26:08.271Z,10.05
2019-05-09T23:28:42.035Z,10.05
2019-05-09T23:31:19.534Z,10.06
2019-05-09T23:33:52.533Z,10.04
2019-05-09T23:36:26.323Z,10.01
2019-05-09T23:39:13.347Z,9.97
2019-05-09T23:41:47.133Z,9.99
2019-05-09T23:44:20.561Z,9.98
2019-05-09T23:46:53.644Z,9.98
2019-05-09T23:49:26.203Z,9.96
2019-05-09T23:51:59.303Z,9.95
2019-05-09T23:54:50.518Z,9.96
2019-05-09T23:57:41.743Z,9.91
